createdAt,value
2018-06-29T00:01:06.345Z,17.96
2018-06-29T00:02:37.916Z,18.11
2018-06-29T00:04:09.489Z,18.07
2018-06-29T00:05:41.161Z,18.18
2018-06-29T00:07:12.778Z,18.36
2018-06-29T00:08:44.206Z,18.41
2018-06-29T00:10:15.778Z,18.51
2018-06-29T00:11:47.351Z,18.48
2018-06-29T00:13:18.924Z,18.50
2018-06-29T00:14:50.496Z,18.60
2018-06-29T00:16:22.068Z,18.91
2018-06-29T00:17:53.640Z,18.99
2018-06-29T00:19:25.217Z,18.84
2018-06-29T00:20:56.786Z,18.82
2018-06-29T00:22:28.358Z,18.70
2018-06-29T00:24:00.582Z,18.63
2018-06-29T00:25:31.504Z,18.50
2018-06-29T00:27:03.076Z,18.50
2018-06-29T00:28:34.650Z,18.39
2018-06-29T00:30:06.223Z,18.18
2018-06-29T00:31:37.794Z,18.14
2018-06-29T00:33:09.372Z,18.05
2018-06-29T00:34:40.940Z,18.00
2018-06-29T00:36:12.515Z,17.93
2018-06-29T00:37:44.085Z,17.95
2018-06-29T00:39:15.658Z,17.90
2018-06-29T00:40:47.231Z,17.86
2018-06-29T00:42:18.904Z,17.77
2018-06-29T00:43:50.377Z,17.95
2018-06-29T00:45:21.948Z,17.82
2018-06-29T00:46:53.521Z,17.86
2018-06-29T00:48:25.093Z,17.75
2018-06-29T00:49:56.666Z,17.74
2018-06-29T00:51:28.239Z,17.59
2018-06-29T00:52:59.811Z,17.44
2018-06-29T00:54:31.647Z,17.31
2018-06-29T00:56:02.956Z,17.26
2018-06-29T00:57:34.528Z,17.18
2018-06-29T00:59:06.101Z,17.22
2018-06-29T01:00:37.772Z,17.21
2018-06-29T01:02:09.244Z,17.31
2018-06-29T01:03:40.819Z,17.23
2018-06-29T01:05:12.389Z,17.15
2018-06-29T01:06:43.961Z,17.07
2018-06-29T01:08:15.560Z,17.07
2018-06-29T01:09:47.109Z,17.01
2018-06-29T01:11:18.677Z,17.03
2018-06-29T01:12:50.249Z,16.93
2018-06-29T01:14:21.821Z,16.91
2018-06-29T01:15:53.393Z,16.88
2018-06-29T01:17:24.965Z,17.03
2018-06-29T01:18:56.637Z,17.03
2018-06-29T01:20:28.109Z,16.96
2018-06-29T01:21:59.681Z,16.85
2018-06-29T01:23:31.252Z,16.79
2018-06-29T01:25:02.980Z,16.79
2018-06-29T01:26:34.395Z,16.60
2018-06-29T01:28:05.997Z,16.58
2018-06-29T01:29:37.540Z,16.79
2018-06-29T01:31:09.110Z,16.70
2018-06-29T01:32:40.682Z,16.85
2018-06-29T01:34:12.258Z,17.06
2018-06-29T01:35:43.825Z,17.25
2018-06-29T01:37:15.497Z,17.08
2018-06-29T01:38:46.968Z,16.98
2018-06-29T01:40:18.540Z,16.79
2018-06-29T01:41:50.111Z,16.70
2018-06-29T01:43:21.682Z,16.63
2018-06-29T01:44:53.254Z,16.49
2018-06-29T01:46:24.825Z,16.45
2018-06-29T01:47:56.398Z,16.56
2018-06-29T01:49:27.972Z,16.48
2018-06-29T01:50:59.542Z,16.49
2018-06-29T01:52:31.167Z,16.43
2018-06-29T01:54:02.683Z,16.31
2018-06-29T01:55:34.958Z,16.33
2018-06-29T01:57:05.826Z,16.28
2018-06-29T01:58:37.403Z,16.30
2018-06-29T02:00:08.968Z,16.25
2018-06-29T02:01:40.789Z,16.17
2018-06-29T02:03:12.110Z,16.17
2018-06-29T02:04:43.681Z,16.14
2018-06-29T02:06:15.252Z,16.24
2018-06-29T02:07:46.824Z,16.15
2018-06-29T02:09:18.394Z,16.12
2018-06-29T02:10:49.968Z,16.09
2018-06-29T02:12:21.537Z,16.11
2018-06-29T02:13:53.208Z,16.08
2018-06-29T02:15:24.679Z,16.08
2018-06-29T02:16:56.250Z,16.60
2018-06-29T02:18:27.820Z,17.52
2018-06-29T02:19:59.391Z,17.79
2018-06-29T02:21:30.962Z,17.87
2018-06-29T02:23:02.536Z,18.12
2018-06-29T02:24:34.106Z,17.90
2018-06-29T02:26:05.677Z,17.72
2018-06-29T02:27:37.252Z,17.79
2018-06-29T02:29:08.819Z,17.84
2018-06-29T02:30:40.470Z,17.78
2018-06-29T02:32:12.059Z,17.66
2018-06-29T02:33:43.547Z,17.66
2018-06-29T02:35:15.101Z,17.48
2018-06-29T02:36:46.682Z,17.19
2018-06-29T02:38:18.244Z,16.97
2018-06-29T02:39:49.815Z,16.97
2018-06-29T02:41:21.386Z,16.73
2018-06-29T02:42:52.957Z,16.60
2018-06-29T02:44:24.529Z,16.57
2018-06-29T02:45:56.100Z,17.00
2018-06-29T02:47:27.671Z,16.96
2018-06-29T02:48:59.242Z,17.30
2018-06-29T02:50:30.914Z,17.38
2018-06-29T02:52:02.385Z,17.31
2018-06-29T02:53:33.960Z,17.34
2018-06-29T02:55:05.527Z,17.26
2018-06-29T02:56:37.099Z,17.72
2018-06-29T02:58:08.669Z,17.72
2018-06-29T02:59:40.240Z,18.29
2018-06-29T03:01:11.811Z,18.17
2018-06-29T03:02:43.387Z,18.58
2018-06-29T03:04:14.954Z,18.60
2018-06-29T03:05:46.524Z,18.90
2018-06-29T03:07:18.095Z,19.00
2018-06-29T03:08:49.771Z,18.78
2018-06-29T03:10:21.237Z,18.90
2018-06-29T03:11:52.809Z,19.04
2018-06-29T03:13:24.380Z,19.31
2018-06-29T03:14:55.951Z,19.16
2018-06-29T03:16:27.527Z,19.25
2018-06-29T03:17:59.094Z,19.25
2018-06-29T03:19:30.670Z,19.36
2018-06-29T03:21:02.239Z,19.32
2018-06-29T03:22:33.812Z,19.32
2018-06-29T03:24:05.382Z,19.29
2018-06-29T03:25:36.952Z,19.14
2018-06-29T03:27:08.875Z,19.07
2018-06-29T03:28:40.096Z,18.78
2018-06-29T03:30:11.668Z,18.84
2018-06-29T03:31:43.242Z,18.91
2018-06-29T03:33:14.811Z,19.04
2018-06-29T03:34:46.383Z,18.81
2018-06-29T03:36:17.955Z,18.85
2018-06-29T03:37:49.527Z,19.02
2018-06-29T03:39:21.099Z,18.62
2018-06-29T03:40:52.671Z,18.67
2018-06-29T03:42:24.242Z,18.69
2018-06-29T03:43:55.813Z,18.55
2018-06-29T03:45:27.487Z,18.70
2018-06-29T03:46:58.957Z,18.78
2018-06-29T03:48:30.529Z,18.84
2018-06-29T03:50:02.100Z,18.82
2018-06-29T03:51:33.672Z,18.85
2018-06-29T03:53:05.242Z,19.02
2018-06-29T03:54:36.815Z,18.84
2018-06-29T03:56:08.386Z,18.80
2018-06-29T03:57:40.208Z,18.73
2018-06-29T03:59:11.529Z,18.90
2018-06-29T04:00:43.101Z,18.76
2018-06-29T04:02:14.672Z,18.90
2018-06-29T04:03:46.344Z,18.85
2018-06-29T04:05:17.818Z,18.91
2018-06-29T04:06:49.386Z,18.75
2018-06-29T04:08:20.958Z,18.67
2018-06-29T04:09:52.530Z,18.66
2018-06-29T04:11:24.101Z,18.62
2018-06-29T04:12:55.737Z,18.91
2018-06-29T04:14:27.244Z,18.85
2018-06-29T04:15:58.815Z,18.81
2018-06-29T04:17:30.387Z,18.65
2018-06-29T04:19:01.959Z,18.57
2018-06-29T04:20:33.530Z,18.62
2018-06-29T04:22:05.205Z,18.70
2018-06-29T04:23:36.674Z,18.50
2018-06-29T04:25:08.244Z,18.81
2018-06-29T04:26:39.816Z,18.69
2018-06-29T04:28:11.391Z,18.57
2018-06-29T04:29:42.959Z,18.54
2018-06-29T04:31:14.530Z,18.48
2018-06-29T04:32:46.155Z,18.47
2018-06-29T04:34:17.673Z,18.51
2018-06-29T04:35:49.244Z,18.58
2018-06-29T04:37:20.816Z,18.60
2018-06-29T04:38:52.387Z,18.39
2018-06-29T04:40:24.059Z,18.39
2018-06-29T04:41:55.530Z,18.55
2018-06-29T04:43:27.101Z,18.48
2018-06-29T04:44:58.672Z,18.37
2018-06-29T04:46:30.245Z,18.37
2018-06-29T04:48:01.815Z,18.27
2018-06-29T04:49:33.386Z,18.51
2018-06-29T04:51:04.957Z,18.30
2018-06-29T04:52:36.528Z,18.35
2018-06-29T04:54:08.100Z,18.18
2018-06-29T04:55:39.671Z,17.96
2018-06-29T04:57:11.242Z,18.15
2018-06-29T04:58:43.216Z,18.37
2018-06-29T05:00:14.386Z,18.27
2018-06-29T05:01:45.956Z,18.18
2018-06-29T05:03:17.527Z,18.26
2018-06-29T05:04:49.100Z,18.17
2018-06-29T05:06:20.669Z,18.33
2018-06-29T05:07:52.240Z,18.37
2018-06-29T05:09:23.811Z,18.44
2018-06-29T05:10:55.382Z,18.44
2018-06-29T05:12:26.954Z,18.50
2018-06-29T05:13:58.528Z,18.26
2018-06-29T05:15:30.134Z,18.18
2018-06-29T05:17:01.767Z,18.35
2018-06-29T05:18:33.238Z,18.41
2018-06-29T05:20:04.809Z,18.27
2018-06-29T05:21:36.380Z,18.23
2018-06-29T05:23:07.954Z,18.12
2018-06-29T05:24:39.523Z,18.10
2018-06-29T05:26:11.093Z,18.08
2018-06-29T05:27:42.664Z,18.12
2018-06-29T05:29:14.485Z,18.07
2018-06-29T05:30:45.806Z,18.02
2018-06-29T05:32:17.378Z,18.39
2018-06-29T05:33:48.948Z,18.27
2018-06-29T05:35:20.620Z,18.05
2018-06-29T05:36:52.090Z,18.07
2018-06-29T05:38:23.662Z,18.17
2018-06-29T05:39:55.232Z,18.12
2018-06-29T05:41:26.825Z,18.15
2018-06-29T05:42:58.376Z,18.23
2018-06-29T05:44:29.948Z,18.12
2018-06-29T05:46:01.516Z,18.02
2018-06-29T05:47:33.087Z,18.05
2018-06-29T05:49:04.658Z,18.14
2018-06-29T05:50:36.229Z,17.96
2018-06-29T05:52:07.802Z,17.87
2018-06-29T05:53:39.471Z,17.75
2018-06-29T05:55:10.941Z,17.70
2018-06-29T05:56:42.512Z,17.43
2018-06-29T05:58:14.083Z,17.56
2018-06-29T05:59:45.654Z,17.71
2018-06-29T06:01:17.225Z,17.59
2018-06-29T06:02:48.797Z,17.52
2018-06-29T06:04:20.367Z,17.46
2018-06-29T06:05:51.938Z,17.54
2018-06-29T06:07:23.509Z,17.33
2018-06-29T06:08:55.079Z,17.36
2018-06-29T06:10:26.651Z,17.21
2018-06-29T06:11:58.321Z,17.22
2018-06-29T06:13:29.841Z,17.23
2018-06-29T06:15:01.365Z,17.22
2018-06-29T06:16:32.932Z,17.21
2018-06-29T06:18:04.503Z,17.19
2018-06-29T06:19:36.074Z,17.15
2018-06-29T06:21:07.645Z,17.04
2018-06-29T06:22:39.217Z,17.01
2018-06-29T06:24:10.789Z,16.98
2018-06-29T06:25:42.357Z,16.88
2018-06-29T06:27:13.928Z,16.71
2018-06-29T06:28:45.499Z,16.76
2018-06-29T06:30:17.421Z,16.63
2018-06-29T06:31:48.640Z,16.53
2018-06-29T06:33:20.211Z,16.60
2018-06-29T06:34:51.783Z,16.56
2018-06-29T06:36:23.352Z,16.63
2018-06-29T06:37:54.924Z,16.57
2018-06-29T06:39:26.496Z,16.61
2018-06-29T06:40:58.065Z,16.56
2018-06-29T06:42:29.635Z,16.60
2018-06-29T06:44:01.207Z,16.52
2018-06-29T06:45:32.777Z,16.61
2018-06-29T06:47:04.383Z,16.61
2018-06-29T06:48:36.021Z,16.49
2018-06-29T06:50:07.489Z,16.56
2018-06-29T06:51:39.058Z,16.56
2018-06-29T06:53:10.628Z,16.57
2018-06-29T06:56:13.770Z,16.63
2018-06-29T06:57:45.341Z,16.76
2018-06-29T06:59:16.910Z,16.56
2018-06-29T07:00:48.481Z,16.70
2018-06-29T07:02:20.055Z,16.60
2018-06-29T07:03:51.621Z,16.56
2018-06-29T07:05:23.191Z,16.64
2018-06-29T07:06:54.763Z,16.64
2018-06-29T07:08:26.433Z,16.68
2018-06-29T07:09:57.903Z,16.63
2018-06-29T07:11:29.474Z,16.52
2018-06-29T07:13:01.049Z,16.48
2018-06-29T07:14:32.617Z,16.53
2018-06-29T07:16:04.184Z,16.66
2018-06-29T07:17:35.755Z,16.78
2018-06-29T07:19:07.324Z,16.82
2018-06-29T07:20:38.896Z,16.60
2018-06-29T07:22:10.467Z,16.49
2018-06-29T07:23:42.037Z,16.57
2018-06-29T07:25:13.606Z,16.43
2018-06-29T07:26:45.727Z,16.58
2018-06-29T07:28:16.749Z,16.46
2018-06-29T07:29:48.317Z,16.63
2018-06-29T07:31:19.888Z,16.43
2018-06-29T07:32:51.458Z,16.46
2018-06-29T07:34:23.028Z,16.39
2018-06-29T07:35:54.600Z,16.39
2018-06-29T07:37:26.169Z,16.50
2018-06-29T07:38:57.739Z,16.42
2018-06-29T07:40:29.310Z,16.39
2018-06-29T07:42:00.879Z,16.33
2018-06-29T07:43:32.450Z,16.28
2018-06-29T07:45:04.120Z,16.21
2018-06-29T07:46:35.642Z,16.12
2018-06-29T07:48:07.160Z,16.09
2018-06-29T07:49:38.731Z,16.12
2018-06-29T07:51:10.300Z,16.08
2018-06-29T07:52:41.872Z,16.15
2018-06-29T07:54:13.441Z,16.08
2018-06-29T07:55:45.012Z,16.02
2018-06-29T07:57:16.585Z,16.05
2018-06-29T07:58:48.271Z,15.94
2018-06-29T08:00:19.721Z,16.11
2018-06-29T08:01:51.291Z,16.25
2018-06-29T08:03:22.961Z,16.11
2018-06-29T08:04:54.431Z,16.20
2018-06-29T08:06:26.002Z,16.41
2018-06-29T08:07:57.571Z,16.45
2018-06-29T08:09:29.140Z,16.53
2018-06-29T08:11:00.712Z,16.50
2018-06-29T08:12:32.282Z,16.60
2018-06-29T08:14:03.850Z,16.41
2018-06-29T08:15:35.421Z,16.33
2018-06-29T08:17:06.990Z,16.33
2018-06-29T08:18:38.560Z,16.34
2018-06-29T08:20:10.129Z,16.20
2018-06-29T08:21:41.800Z,16.23
2018-06-29T08:23:13.270Z,16.24
2018-06-29T08:24:44.838Z,16.27
2018-06-29T08:26:16.408Z,16.35
2018-06-29T08:27:47.978Z,16.38
2018-06-29T08:29:19.548Z,16.27
2018-06-29T08:30:51.121Z,16.24
2018-06-29T08:32:22.689Z,16.17
2018-06-29T08:33:54.407Z,16.31
2018-06-29T08:35:25.828Z,16.35
2018-06-29T08:36:57.397Z,16.48
2018-06-29T08:38:28.968Z,16.43
2018-06-29T08:40:00.637Z,16.42
2018-06-29T08:41:32.107Z,16.52
2018-06-29T08:43:03.676Z,16.41
2018-06-29T08:44:35.246Z,16.24
2018-06-29T08:46:06.817Z,16.27
2018-06-29T08:47:38.386Z,16.24
2018-06-29T08:49:09.956Z,16.23
2018-06-29T08:50:41.525Z,16.39
2018-06-29T08:52:13.102Z,16.25
2018-06-29T08:53:44.666Z,16.24
2018-06-29T08:55:16.235Z,16.28
2018-06-29T08:56:47.805Z,16.28
2018-06-29T08:58:19.730Z,16.15
2018-06-29T08:59:50.944Z,16.15
2018-06-29T09:01:22.515Z,16.12
2018-06-29T09:02:54.084Z,16.08
2018-06-29T09:04:25.654Z,16.07
2018-06-29T09:05:57.225Z,16.11
2018-06-29T09:07:28.794Z,16.07
2018-06-29T09:09:00.366Z,16.07
2018-06-29T09:10:31.934Z,16.14
2018-06-29T09:12:03.504Z,16.01
2018-06-29T09:13:35.073Z,16.15
2018-06-29T09:15:06.647Z,16.02
2018-06-29T09:16:38.313Z,16.20
2018-06-29T09:18:09.783Z,16.17
2018-06-29T09:19:41.352Z,16.28
2018-06-29T09:21:12.922Z,16.08
2018-06-29T09:22:44.491Z,15.97
2018-06-29T09:24:16.065Z,16.01
2018-06-29T09:25:47.632Z,15.97
2018-06-29T09:27:19.200Z,15.82
2018-06-29T09:28:50.772Z,15.80
2018-06-29T09:30:22.341Z,15.89
2018-06-29T09:31:53.910Z,15.78
2018-06-29T09:33:25.479Z,15.78
2018-06-29T09:34:57.149Z,15.84
2018-06-29T09:36:28.671Z,15.80
2018-06-29T09:38:00.188Z,15.75
2018-06-29T09:39:31.758Z,15.96
2018-06-29T09:41:03.328Z,15.89
2018-06-29T09:42:34.913Z,15.86
2018-06-29T09:44:06.522Z,15.84
2018-06-29T09:45:38.092Z,15.62
2018-06-29T09:47:09.662Z,15.71
2018-06-29T09:48:41.534Z,15.57
2018-06-29T09:50:12.951Z,15.64
2018-06-29T09:51:44.317Z,15.75
2018-06-29T09:53:15.986Z,15.60
2018-06-29T09:54:47.455Z,15.59
2018-06-29T09:56:19.028Z,15.54
2018-06-29T09:57:50.594Z,15.65
2018-06-29T09:59:22.164Z,15.59
2018-06-29T10:00:55.410Z,15.69
2018-06-29T10:02:31.688Z,15.65
2018-06-29T10:03:56.872Z,15.71
2018-06-29T10:05:28.443Z,15.92
2018-06-29T10:07:00.316Z,16.38
2018-06-29T10:08:32.115Z,16.88
2018-06-29T10:10:03.153Z,17.22
2018-06-29T10:11:34.827Z,17.38
2018-06-29T10:13:06.495Z,17.41
2018-06-29T10:14:37.867Z,17.66
2018-06-29T10:16:09.433Z,17.78
2018-06-29T10:17:41.004Z,17.63
2018-06-29T10:19:12.575Z,17.78
2018-06-29T10:22:16.246Z,17.99
2018-06-29T10:25:19.562Z,17.84
2018-06-29T10:26:50.430Z,17.87
2018-06-29T10:29:54.182Z,17.95
2018-06-29T10:31:25.247Z,18.05
2018-06-29T10:32:57.247Z,18.03
2018-06-29T10:34:28.368Z,18.42
2018-06-29T10:35:59.908Z,18.57
2018-06-29T10:37:31.435Z,18.78
2018-06-29T10:39:03.008Z,19.11
2018-06-29T10:40:35.111Z,18.92
2018-06-29T10:42:06.153Z,18.99
2018-06-29T10:43:37.727Z,19.14
2018-06-29T10:45:09.503Z,19.13
2018-06-29T10:48:12.449Z,19.50
2018-06-29T10:49:44.298Z,19.55
2018-06-29T10:52:47.805Z,20.14
2018-06-29T10:54:18.751Z,20.54
2018-06-29T10:55:50.319Z,20.88
2018-06-29T10:57:22.099Z,20.38
2018-06-29T10:58:53.469Z,20.94
2018-06-29T11:00:25.043Z,20.95
2018-06-29T11:01:56.821Z,20.61
2018-06-29T11:03:28.195Z,20.76
2018-06-29T11:04:59.775Z,20.64
2018-06-29T11:08:03.126Z,20.36
2018-06-29T11:09:34.554Z,20.24
2018-06-29T11:11:06.437Z,20.55
2018-06-29T11:12:38.789Z,20.84
2018-06-29T11:14:09.530Z,21.09
2018-06-29T11:15:40.804Z,21.12
2018-06-29T11:17:12.684Z,20.62
2018-06-29T11:18:44.262Z,20.74
2018-06-29T11:20:15.614Z,21.17
2018-06-29T11:23:18.712Z,21.14
2018-06-29T11:24:50.272Z,20.88
2018-06-29T11:26:22.143Z,21.10
2018-06-29T11:27:53.416Z,20.98
2018-06-29T11:29:25.012Z,20.85
2018-06-29T11:30:57.102Z,20.91
2018-06-29T11:35:31.301Z,21.46
2018-06-29T11:38:34.458Z,21.50
2018-06-29T11:40:06.236Z,21.31
2018-06-29T11:43:10.693Z,21.52
2018-06-29T11:44:41.072Z,21.44
2018-06-29T11:46:12.354Z,21.47
2018-06-29T11:47:43.975Z,21.82
2018-06-29T11:49:16.491Z,22.05
2018-06-29T11:50:47.236Z,22.15
2018-06-29T11:52:18.659Z,22.52
2018-06-29T11:55:21.815Z,22.40
2018-06-29T11:56:53.598Z,22.61
2018-06-29T11:59:56.754Z,22.83
2018-06-29T12:01:28.232Z,22.55
2018-06-29T12:02:59.771Z,22.68
2018-06-29T12:04:31.293Z,22.28
2018-06-29T12:06:03.071Z,22.18
2018-06-29T12:07:34.753Z,22.37
2018-06-29T12:12:09.717Z,22.51
2018-06-29T12:15:12.379Z,22.12
2018-06-29T12:16:43.923Z,22.22
2018-06-29T12:18:15.502Z,22.55
2018-06-29T12:21:19.297Z,22.15
2018-06-29T12:22:50.244Z,22.35
2018-06-29T12:24:21.839Z,22.92
2018-06-29T12:25:53.417Z,23.16
2018-06-29T12:27:24.982Z,23.68
2018-06-29T12:28:57.298Z,24.16
2018-06-29T12:30:28.142Z,23.23
2018-06-29T12:33:31.301Z,23.66
2018-06-29T12:35:02.998Z,23.84
2018-06-29T12:36:34.483Z,23.63
2018-06-29T12:39:37.722Z,23.94
2018-06-29T12:41:09.410Z,23.50
2018-06-29T12:42:40.827Z,23.15
2018-06-29T12:44:12.370Z,23.27
2018-06-29T12:45:44.554Z,22.94
2018-06-29T12:47:16.061Z,23.87
2018-06-29T12:51:50.269Z,23.68
2018-06-29T12:53:21.850Z,23.31
2018-06-29T12:54:53.642Z,23.65
2018-06-29T12:56:25.517Z,23.70
2018-06-29T12:57:56.769Z,24.09
2018-06-29T12:59:28.187Z,24.49
2018-06-29T13:00:59.962Z,24.60
2018-06-29T13:04:02.947Z,24.31
2018-06-29T13:07:06.082Z,24.93
2018-06-29T13:10:09.294Z,24.28
2018-06-29T13:11:41.024Z,24.43
2018-06-29T13:13:12.404Z,24.45
2018-06-29T13:14:44.723Z,24.31
2018-06-29T13:17:47.450Z,24.20
2018-06-29T13:19:18.731Z,24.40
2018-06-29T13:20:50.842Z,24.84
2018-06-29T13:22:21.895Z,24.58
2018-06-29T13:23:53.477Z,24.60
2018-06-29T13:25:25.270Z,24.87
2018-06-29T13:26:56.663Z,24.31
2018-06-29T13:28:28.551Z,24.46
2018-06-29T13:31:31.383Z,24.43
2018-06-29T13:33:02.990Z,25.21
2018-06-29T13:36:06.394Z,25.32
2018-06-29T13:37:37.810Z,25.30
2018-06-29T13:39:09.296Z,25.91
2018-06-29T13:40:41.077Z,26.12
2018-06-29T13:42:12.762Z,25.99
2018-06-29T13:43:44.096Z,25.77
2018-06-29T13:45:15.682Z,25.13
2018-06-29T13:46:47.261Z,25.42
2018-06-29T13:48:18.842Z,25.54
2018-06-29T13:49:50.426Z,25.67
2018-06-29T13:51:22.009Z,25.91
2018-06-29T13:52:53.541Z,25.36
2018-06-29T13:54:25.167Z,25.57
2018-06-29T13:57:28.670Z,25.55
2018-06-29T13:58:59.900Z,25.21
2018-06-29T14:02:03.059Z,25.00
2018-06-29T14:03:35.321Z,25.17
2018-06-29T14:05:06.198Z,25.65
2018-06-29T14:06:38.081Z,25.51
2018-06-29T14:08:09.400Z,25.13
2018-06-29T14:09:41.006Z,25.90
2018-06-29T14:11:12.528Z,26.12
2018-06-29T14:12:44.111Z,26.23
2018-06-29T14:14:15.695Z,25.46
2018-06-29T14:15:47.378Z,24.73
2018-06-29T14:17:19.065Z,25.21
2018-06-29T14:20:22.230Z,26.01
2018-06-29T14:21:53.745Z,26.23
2018-06-29T14:23:25.395Z,26.09
2018-06-29T14:24:56.980Z,25.92
2018-06-29T14:26:28.359Z,26.15
2018-06-29T14:29:31.728Z,25.95
2018-06-29T14:31:03.107Z,25.90
2018-06-29T14:32:34.691Z,25.72
2018-06-29T14:34:07.008Z,25.73
2018-06-29T14:35:38.839Z,26.20
2018-06-29T14:37:09.440Z,26.72
2018-06-29T14:38:41.234Z,26.48
2018-06-29T14:40:12.619Z,26.55
2018-06-29T14:43:15.954Z,26.81
2018-06-29T14:44:47.356Z,26.21
2018-06-29T14:46:19.507Z,26.73
2018-06-29T14:49:22.632Z,27.17
2018-06-29T14:50:53.893Z,26.54
2018-06-29T14:55:28.947Z,27.06
2018-06-29T14:57:00.296Z,27.37
2018-06-29T14:58:31.609Z,27.07
2018-06-29T15:00:03.726Z,27.46
2018-06-29T15:01:35.569Z,27.49
2018-06-29T15:03:06.361Z,27.27
2018-06-29T15:04:38.021Z,27.43
2018-06-29T15:07:41.922Z,27.24
2018-06-29T15:09:12.697Z,26.80
2018-06-29T15:10:44.281Z,27.03
2018-06-29T15:12:15.864Z,27.43
2018-06-29T15:13:47.751Z,27.70
2018-06-29T15:15:19.034Z,27.37
2018-06-29T15:16:50.825Z,27.77
2018-06-29T15:18:22.404Z,27.65
2018-06-29T15:19:53.829Z,26.70
2018-06-29T15:21:25.575Z,27.00
2018-06-29T15:22:56.955Z,27.21
2018-06-29T15:24:28.563Z,27.18
2018-06-29T15:26:00.123Z,27.55
2018-06-29T15:27:31.970Z,28.49
2018-06-29T15:29:03.296Z,29.04
2018-06-29T15:30:35.411Z,29.11
2018-06-29T15:32:06.564Z,28.06
2018-06-29T15:33:38.552Z,27.87
2018-06-29T15:35:09.631Z,26.63
2018-06-29T15:36:41.226Z,27.97
2018-06-29T15:38:13.103Z,28.17
2018-06-29T15:39:44.806Z,27.39
2018-06-29T15:41:16.273Z,27.07
2018-06-29T15:45:50.937Z,27.65
2018-06-29T15:47:22.308Z,27.63
2018-06-29T15:48:54.095Z,28.00
2018-06-29T15:50:25.476Z,27.78
2018-06-29T15:51:57.277Z,27.60
2018-06-29T15:53:29.177Z,27.65
2018-06-29T15:55:00.231Z,28.07
2018-06-29T15:56:31.815Z,28.09
2018-06-29T15:58:03.657Z,28.70
2018-06-29T16:01:06.570Z,27.84
2018-06-29T16:02:38.746Z,27.55
2018-06-29T16:04:10.110Z,27.92
2018-06-29T16:05:41.477Z,27.79
2018-06-29T16:08:44.491Z,27.92
2018-06-29T16:10:16.177Z,28.21
2018-06-29T16:13:19.452Z,28.83
2018-06-29T16:14:50.861Z,28.19
2018-06-29T16:16:22.636Z,27.94
2018-06-29T16:17:54.000Z,28.27
2018-06-29T16:19:25.588Z,28.21
2018-06-29T16:22:28.766Z,28.95
2018-06-29T16:27:03.717Z,28.14
2018-06-29T16:28:35.194Z,28.58
2018-06-29T16:30:06.679Z,29.00
2018-06-29T16:31:38.447Z,29.19
2018-06-29T16:33:09.918Z,28.90
2018-06-29T16:34:41.437Z,29.95
2018-06-29T16:36:13.019Z,29.48
2018-06-29T16:37:44.858Z,28.48
2018-06-29T16:39:16.714Z,28.52
2018-06-29T16:40:47.783Z,28.02
2018-06-29T16:42:19.903Z,28.00
2018-06-29T16:43:50.944Z,28.55
2018-06-29T16:45:22.575Z,28.77
2018-06-29T16:46:54.360Z,28.18
2018-06-29T16:49:57.398Z,28.33
2018-06-29T16:51:28.866Z,28.48
2018-06-29T16:53:00.459Z,29.31
2018-06-29T16:54:32.242Z,29.33
2018-06-29T16:56:03.621Z,29.68
2018-06-29T16:57:35.204Z,29.18
2018-06-29T16:59:06.788Z,29.06
2018-06-29T17:00:38.475Z,28.46
2018-06-29T17:03:41.544Z,28.88
2018-06-29T17:05:14.664Z,29.27
2018-06-29T17:06:44.712Z,29.05
2018-06-29T17:08:16.511Z,29.58
2018-06-29T17:09:47.908Z,29.83
2018-06-29T17:11:19.467Z,30.42
2018-06-29T17:12:51.053Z,29.70
2018-06-29T17:14:22.635Z,28.89
2018-06-29T17:15:54.852Z,29.18
2018-06-29T17:17:25.881Z,28.90
2018-06-29T17:18:57.775Z,28.96
2018-06-29T17:20:29.176Z,28.58
2018-06-29T17:22:00.669Z,29.18
2018-06-29T17:25:04.121Z,28.19
2018-06-29T17:28:07.023Z,28.93
2018-06-29T17:29:38.784Z,28.74
2018-06-29T17:31:10.064Z,29.48
2018-06-29T17:34:13.548Z,29.60
2018-06-29T17:35:45.021Z,28.71
2018-06-29T17:38:47.987Z,29.19
2018-06-29T17:40:19.569Z,28.19
2018-06-29T17:43:22.768Z,29.58
2018-06-29T17:44:54.557Z,29.71
2018-06-29T17:46:25.948Z,28.90
2018-06-29T17:47:57.867Z,28.55
2018-06-29T17:51:01.304Z,28.95
2018-06-29T17:54:04.126Z,29.09
2018-06-29T17:55:35.940Z,29.16
2018-06-29T17:57:07.116Z,28.89
2018-06-29T17:58:38.900Z,28.41
2018-06-29T18:01:41.742Z,30.34
2018-06-29T18:03:13.821Z,30.24
2018-06-29T18:04:44.908Z,30.10
2018-06-29T18:06:16.642Z,30.13
2018-06-29T18:07:48.287Z,30.13
2018-06-29T18:09:19.659Z,29.95
2018-06-29T18:12:22.837Z,29.76
2018-06-29T18:13:54.560Z,30.32
2018-06-29T18:15:26.093Z,28.83
2018-06-29T18:18:29.274Z,28.24
2018-06-29T18:20:00.751Z,28.85
2018-06-29T18:21:32.460Z,29.15
2018-06-29T18:23:04.118Z,29.53
2018-06-29T18:24:35.493Z,29.85
2018-06-29T18:26:07.708Z,29.45
2018-06-29T18:27:39.291Z,29.23
2018-06-29T18:30:41.848Z,29.08
2018-06-29T18:32:13.542Z,30.26
2018-06-29T18:33:45.054Z,29.08
2018-06-29T18:35:17.197Z,29.86
2018-06-29T18:36:48.691Z,29.83
2018-06-29T18:38:19.940Z,29.21
2018-06-29T18:39:51.522Z,28.34
2018-06-29T18:41:22.908Z,29.05
2018-06-29T18:42:54.681Z,28.98
2018-06-29T18:45:58.588Z,29.41
2018-06-29T18:47:29.536Z,29.58
2018-06-29T18:49:01.412Z,29.74
2018-06-29T18:50:32.401Z,30.24
2018-06-29T18:52:04.284Z,30.70
2018-06-29T18:53:35.564Z,30.82
2018-06-29T18:55:07.348Z,31.06
2018-06-29T18:56:38.931Z,30.15
2018-06-29T18:58:10.311Z,29.70
2018-06-29T18:59:42.039Z,29.05
2018-06-29T19:01:14.459Z,29.51
2018-06-29T19:02:45.064Z,29.94
2018-06-29T19:04:16.843Z,30.10
2018-06-29T19:05:48.223Z,29.95
2018-06-29T19:07:19.855Z,28.93
2018-06-29T19:08:51.386Z,29.70
2018-06-29T19:10:23.620Z,29.76
2018-06-29T19:11:55.426Z,29.16
2018-06-29T19:13:26.388Z,29.12
2018-06-29T19:14:57.824Z,28.37
2018-06-29T19:19:32.971Z,28.39
2018-06-29T19:21:04.076Z,28.43
2018-06-29T19:22:35.632Z,28.51
2018-06-29T19:24:07.406Z,28.81
2018-06-29T19:25:39.127Z,29.02
2018-06-29T19:27:10.368Z,29.43
2018-06-29T19:30:13.529Z,29.33
2018-06-29T19:33:16.903Z,29.18
2018-06-29T19:34:49.411Z,29.34
2018-06-29T19:36:19.855Z,29.79
2018-06-29T19:37:51.804Z,29.94
2018-06-29T19:39:23.018Z,29.82
2018-06-29T19:40:54.596Z,29.57
2018-06-29T19:42:26.481Z,29.57
2018-06-29T19:43:57.960Z,29.43
2018-06-29T19:45:29.440Z,29.36
2018-06-29T19:47:00.920Z,29.19
2018-06-29T19:51:35.663Z,28.37
2018-06-29T19:56:10.436Z,28.24
2018-06-29T19:59:13.569Z,27.31
2018-06-29T20:03:48.303Z,25.92
2018-06-29T20:05:20.284Z,25.75
2018-06-29T20:06:51.996Z,25.67
2018-06-29T20:09:54.624Z,25.39
2018-06-29T20:11:26.207Z,25.21
2018-06-29T20:12:57.781Z,24.99
2018-06-29T20:14:29.360Z,24.78
2018-06-29T20:16:00.941Z,24.39
2018-06-29T20:17:32.546Z,24.21
2018-06-29T20:19:04.102Z,23.78
2018-06-29T20:20:35.722Z,23.46
2018-06-29T20:22:07.254Z,23.07
2018-06-29T20:23:38.931Z,22.79
2018-06-29T20:25:10.410Z,22.57
2018-06-29T20:26:41.987Z,22.31
2018-06-29T20:28:13.564Z,22.15
2018-06-29T20:29:45.142Z,21.92
2018-06-29T20:31:16.723Z,21.74
2018-06-29T20:32:48.296Z,21.53
2018-06-29T20:34:19.920Z,21.35
2018-06-29T20:35:51.450Z,21.32
2018-06-29T20:37:23.027Z,21.19
2018-06-29T20:38:54.712Z,21.14
2018-06-29T20:40:26.180Z,20.94
2018-06-29T20:41:57.859Z,20.91
2018-06-29T20:43:29.332Z,20.76
2018-06-29T20:45:00.909Z,20.69
2018-06-29T20:46:32.484Z,20.58
2018-06-29T20:48:04.060Z,20.38
2018-06-29T20:49:35.697Z,20.18
2018-06-29T20:51:07.274Z,20.23
2018-06-29T20:52:38.788Z,20.17
2018-06-29T20:54:10.563Z,20.13
2018-06-29T20:55:41.996Z,20.02
2018-06-29T20:57:13.512Z,20.03
2018-06-29T20:58:45.087Z,20.17
2018-06-29T21:00:16.662Z,20.06
2018-06-29T21:01:48.237Z,20.08
2018-06-29T21:03:19.813Z,20.05
2018-06-29T21:04:51.410Z,19.91
2018-06-29T21:06:22.961Z,19.94
2018-06-29T21:07:54.536Z,19.88
2018-06-29T21:09:26.113Z,19.77
2018-06-29T21:10:57.685Z,19.76
2018-06-29T21:14:00.834Z,19.61
2018-06-29T21:15:32.411Z,19.63
2018-06-29T21:17:03.984Z,19.56
2018-06-29T21:18:35.557Z,19.44
2018-06-29T21:20:07.175Z,19.47
2018-06-29T21:21:38.705Z,19.33
2018-06-29T21:23:10.280Z,19.13
2018-06-29T21:24:41.854Z,19.08
2018-06-29T21:26:13.429Z,18.90
2018-06-29T21:27:45.002Z,18.81
2018-06-29T21:29:16.575Z,18.87